Prettynama — DH3283 — position and weather

sailwx.info

Track history (hours):
 
Tides and Currents Weather Stations Pressure Air Temp Water Temp Dewpoint Dewpoint Depression Visibility Wind Speed Wind Dir Waves Ship Positions

Prettynama

Last reported at 2017-Oct-30 12:04 UTC. Time now 2017-Nov-24 05:47 UTC.
Position N 43°27' W 003°49'.
Warning: this ship's position is 24 days out of date.

Type: Sailing vessel. MMSI: 211267090.

Date/timePositionNaut miles runAvg speedWind from/ knotsBaromVisibWave heightAir tempDewpointWater temp
2017-Oct-30 12:04N 43°27' W 003°49'0 5.6
2017-Oct-30 11:59N 43°27' W 003°48'1 1.7
2017-Oct-30 11:25N 43°27' W 003°47'0 0.2
2017-Oct-30 08:59N 43°28' W 003°48'0 0.0
2017-Oct-30 08:29N 43°28' W 003°48'0 0.0
2017-Oct-29 16:41N 43°28' W 003°48'0 0.0
2017-Oct-29 16:29N 43°28' W 003°48'1 1.4
2017-Oct-29 16:00N 43°28' W 003°47'6 5.1
2017-Oct-29 14:51N 43°30' W 003°39'3 7.3
2017-Oct-29 14:30N 43°31' W 003°36'4 7.2
2017-Oct-29 14:00N 43°30' W 003°31'3 7.1
2017-Oct-29 13:30N 43°28' W 003°27'3 6.7
2017-Oct-29 13:00N 43°25' W 003°25'0 0.1
2017-Oct-29 09:38N 43°25' W 003°25'1 4.3
2017-Oct-29 09:30N 43°26' W 003°26'1 2.4
2017-Oct-29 08:52N 43°26' W 003°28'0 0.0
2017-Oct-29 08:28N 43°26' W 003°28'0 0.0
2017-Oct-28 15:30N 43°26' W 003°28'1 1.4
2017-Oct-28 15:00N 43°26' W 003°27'1 2.7
2017-Oct-28 14:30N 43°27' W 003°25'2 4.9
2017-Oct-28 14:00N 43°29' W 003°27'3 6.6
2017-Oct-28 13:30N 43°30' W 003°32'2 4.9
2017-Oct-28 13:00N 43°31' W 003°35'3 5.9
2017-Oct-28 12:30N 43°30' W 003°39'5 5.4
2017-Oct-28 11:32N 43°28' W 003°45'0 5.6
2017-Oct-28 11:27N 43°28' W 003°46'1 3.3
2017-Oct-28 11:01N 43°28' W 003°48'  
Track history (hours):
 
Tides and Currents Weather Stations Pressure Air Temp Water Temp Dewpoint Dewpoint Depression Visibility Wind Speed Wind Dir Waves Ship Positions

Prettynama

Last reported at 2017-Oct-30 12:04 UTC. Time now 2017-Nov-24 05:47 UTC.
Position N 43°27' W 003°49'.
Warning: this ship's position is 24 days out of date.

Type: Sailing vessel. MMSI: 211267090.

Date/timePositionNaut miles runAvg speedWind from/ knotsBaromVisibWave heightAir tempDewpointWater temp
2017-Oct-30 12:04N 43°27' W 003°49'0 5.6
2017-Oct-30 11:59N 43°27' W 003°48'1 1.7
2017-Oct-30 11:25N 43°27' W 003°47'0 0.2
2017-Oct-30 08:59N 43°28' W 003°48'0 0.0
2017-Oct-30 08:29N 43°28' W 003°48'0 0.0
2017-Oct-29 16:41N 43°28' W 003°48'0 0.0
2017-Oct-29 16:29N 43°28' W 003°48'1 1.4
2017-Oct-29 16:00N 43°28' W 003°47'6 5.1
2017-Oct-29 14:51N 43°30' W 003°39'3 7.3
2017-Oct-29 14:30N 43°31' W 003°36'4 7.2
2017-Oct-29 14:00N 43°30' W 003°31'3 7.1
2017-Oct-29 13:30N 43°28' W 003°27'3 6.7
2017-Oct-29 13:00N 43°25' W 003°25'0 0.1
2017-Oct-29 09:38N 43°25' W 003°25'1 4.3
2017-Oct-29 09:30N 43°26' W 003°26'1 2.4
2017-Oct-29 08:52N 43°26' W 003°28'0 0.0
2017-Oct-29 08:28N 43°26' W 003°28'0 0.0
2017-Oct-28 15:30N 43°26' W 003°28'1 1.4
2017-Oct-28 15:00N 43°26' W 003°27'1 2.7
2017-Oct-28 14:30N 43°27' W 003°25'2 4.9
2017-Oct-28 14:00N 43°29' W 003°27'3 6.6
2017-Oct-28 13:30N 43°30' W 003°32'2 4.9
2017-Oct-28 13:00N 43°31' W 003°35'3 5.9
2017-Oct-28 12:30N 43°30' W 003°39'5 5.4
2017-Oct-28 11:32N 43°28' W 003°45'0 5.6
2017-Oct-28 11:27N 43°28' W 003°46'1 3.3
2017-Oct-28 11:01N 43°28' W 003°48'  

Dump ship's entire track history